createdAt,value
2018-07-19T00:03:53.624Z,99.90
2018-07-19T00:06:28.628Z,99.90
2018-07-19T00:09:04.260Z,99.90
2018-07-19T00:14:14.633Z,99.90
2018-07-19T00:16:49.663Z,99.90
2018-07-19T00:19:27.323Z,99.90
2018-07-19T00:22:03.915Z,99.90
2018-07-19T00:24:40.773Z,99.90
2018-07-19T00:27:15.843Z,99.90
2018-07-19T00:32:24.921Z,99.90
2018-07-19T00:34:59.660Z,99.90
2018-07-19T00:37:34.391Z,99.90
2018-07-19T00:40:09.348Z,99.90
2018-07-19T00:42:44.314Z,99.90
2018-07-19T00:47:53.574Z,99.90
2018-07-19T00:50:28.380Z,99.90
2018-07-19T00:55:39.076Z,99.90
2018-07-19T00:58:13.812Z,99.90
2018-07-19T01:00:49.626Z,99.90
2018-07-19T01:05:59.705Z,99.90
2018-07-19T01:08:34.664Z,99.90
2018-07-19T01:11:10.631Z,99.90
2018-07-19T01:13:45.353Z,99.90
2018-07-19T01:16:20.171Z,99.90
2018-07-19T01:18:54.977Z,99.90
2018-07-19T01:21:29.753Z,99.90
2018-07-19T01:24:04.664Z,99.90
2018-07-19T01:26:39.477Z,99.90
2018-07-19T01:29:14.230Z,99.90
2018-07-19T01:31:50.018Z,99.90
2018-07-19T01:34:24.745Z,99.90
2018-07-19T01:36:59.528Z,99.90
2018-07-19T01:39:34.246Z,99.90
2018-07-19T01:42:21.620Z,99.90
2018-07-19T01:44:56.544Z,99.90
2018-07-19T01:47:31.548Z,99.90
2018-07-19T01:50:07.190Z,99.90
2018-07-19T01:52:41.996Z,99.90
2018-07-19T01:55:16.927Z,99.90
2018-07-19T01:57:51.910Z,99.90
2018-07-19T02:00:26.712Z,99.90
2018-07-19T02:03:15.583Z,99.90
2018-07-19T02:05:50.377Z,99.90
2018-07-19T02:08:25.390Z,99.90
2018-07-19T02:11:01.321Z,99.90
2018-07-19T02:13:37.154Z,99.90
2018-07-19T02:16:12.090Z,99.90
2018-07-19T02:18:47.440Z,99.90
2018-07-19T02:21:22.339Z,99.90
2018-07-19T02:23:57.149Z,99.90
2018-07-19T02:26:31.937Z,99.90
2018-07-19T02:29:07.133Z,99.90
2018-07-19T02:31:42.084Z,99.90
2018-07-19T02:34:16.924Z,99.90
2018-07-19T02:36:51.671Z,99.90
2018-07-19T02:42:00.895Z,99.90
2018-07-19T02:44:35.916Z,99.90
2018-07-19T02:47:11.712Z,99.90
2018-07-19T02:49:46.467Z,99.90
2018-07-19T02:52:21.187Z,99.90
2018-07-19T02:54:56.252Z,99.90
2018-07-19T02:57:30.976Z,99.90
2018-07-19T03:00:06.604Z,99.90
2018-07-19T03:02:42.356Z,99.90
2018-07-19T03:05:17.138Z,99.90
2018-07-19T03:10:26.344Z,99.90
2018-07-19T03:13:01.082Z,99.90
2018-07-19T03:15:35.840Z,99.90
2018-07-19T03:18:10.568Z,99.90
2018-07-19T03:20:45.548Z,99.90
2018-07-19T03:23:20.348Z,99.90
2018-07-19T03:25:55.239Z,99.90
2018-07-19T03:31:04.630Z,99.90
2018-07-19T03:33:39.545Z,99.90
2018-07-19T03:36:14.348Z,99.90
2018-07-19T03:43:58.747Z,99.90
2018-07-19T03:49:07.697Z,99.90
2018-07-19T03:51:42.500Z,99.90
2018-07-19T03:54:17.433Z,99.90
2018-07-19T03:56:53.264Z,99.90
2018-07-19T03:59:29.012Z,99.90
2018-07-19T04:02:03.810Z,99.90
2018-07-19T04:04:38.751Z,99.90
2018-07-19T04:07:13.554Z,99.90
2018-07-19T04:09:48.327Z,99.90
2018-07-19T04:12:24.109Z,99.90
2018-07-19T04:14:59.034Z,99.90
2018-07-19T04:20:08.221Z,99.90
2018-07-19T04:22:42.981Z,99.90
2018-07-19T04:25:17.729Z,99.90
2018-07-19T04:27:52.929Z,99.90
2018-07-19T04:30:27.719Z,99.90
2018-07-19T04:33:02.489Z,99.90
2018-07-19T04:35:38.422Z,99.90
2018-07-19T04:38:13.553Z,99.90
2018-07-19T04:40:48.411Z,99.90
2018-07-19T04:43:23.181Z,99.90
2018-07-19T04:45:57.952Z,99.90
2018-07-19T04:48:32.726Z,98.80
2018-07-19T04:51:07.641Z,97.10
2018-07-19T04:53:42.398Z,94.10
2018-07-19T04:56:17.151Z,91.40
2018-07-19T04:58:51.956Z,86.20
2018-07-19T05:01:26.708Z,81.40
2018-07-19T05:04:02.699Z,76.90
2018-07-19T05:06:37.426Z,67.20
2018-07-19T05:11:47.958Z,63.20
2018-07-19T05:14:22.545Z,64.00
2018-07-19T05:16:56.993Z,64.20
2018-07-19T05:19:32.687Z,65.00
2018-07-19T05:22:07.293Z,65.30
2018-07-19T05:24:41.797Z,67.10
2018-07-19T05:27:16.215Z,68.40
2018-07-19T05:29:50.791Z,69.40
2018-07-19T05:32:25.243Z,71.60
2018-07-19T05:34:59.878Z,71.80
2018-07-19T05:37:34.536Z,74.60
2018-07-19T05:42:45.272Z,77.70
2018-07-19T05:45:19.787Z,75.60
2018-07-19T05:47:54.499Z,72.70
2018-07-19T05:50:29.299Z,71.10
2018-07-19T05:53:04.038Z,68.30
2018-07-19T05:55:38.968Z,67.60
2018-07-19T05:58:14.230Z,65.20
2018-07-19T06:00:49.196Z,63.70
2018-07-19T06:03:23.952Z,64.50
2018-07-19T06:05:59.455Z,63.60
2018-07-19T06:08:34.080Z,64.60
2018-07-19T06:11:08.864Z,64.20
2018-07-19T06:16:17.916Z,62.60
2018-07-19T06:18:53.983Z,64.20
2018-07-19T06:21:28.827Z,64.10
2018-07-19T06:24:04.291Z,65.90
2018-07-19T06:26:40.096Z,65.20
2018-07-19T06:29:14.671Z,67.40
2018-07-19T06:36:57.325Z,65.80
2018-07-19T06:39:34.339Z,63.90
2018-07-19T06:42:08.968Z,63.80
2018-07-19T06:44:44.699Z,61.90
2018-07-19T06:49:53.402Z,61.10
2018-07-19T06:52:28.344Z,61.30
2018-07-19T06:55:03.306Z,62.80
2018-07-19T06:57:38.038Z,62.00
2018-07-19T07:00:13.010Z,62.30
2018-07-19T07:02:48.757Z,61.00
2018-07-19T07:05:23.429Z,61.90
2018-07-19T07:10:32.196Z,60.60
2018-07-19T07:13:07.660Z,60.30
2018-07-19T07:15:43.356Z,60.40
2018-07-19T07:18:17.783Z,61.50
2018-07-19T07:20:52.285Z,61.80
2018-07-19T07:23:26.710Z,63.20
2018-07-19T07:26:01.390Z,62.10
2018-07-19T07:28:40.872Z,61.50
2018-07-19T07:31:15.332Z,60.50
2018-07-19T07:33:52.320Z,61.40
2018-07-19T07:36:26.835Z,60.50
2018-07-19T07:39:01.519Z,59.40
2018-07-19T07:41:36.128Z,58.70
2018-07-19T07:44:10.674Z,59.00
2018-07-19T07:46:46.324Z,57.80
2018-07-19T07:49:20.809Z,58.40
2018-07-19T07:51:55.292Z,57.60
2018-07-19T07:54:29.808Z,57.70
2018-07-19T07:57:05.373Z,58.90
2018-07-19T07:59:40.011Z,59.20
2018-07-19T08:02:14.479Z,57.70
2018-07-19T08:04:48.949Z,57.10
2018-07-19T08:07:24.687Z,57.30
2018-07-19T08:09:59.180Z,54.70
2018-07-19T08:12:33.855Z,54.90
2018-07-19T08:15:08.343Z,54.30
2018-07-19T08:17:43.024Z,53.40
2018-07-19T08:22:51.667Z,51.80
2018-07-19T08:25:26.112Z,50.80
2018-07-19T08:28:00.574Z,51.60
2018-07-19T08:30:35.247Z,49.90
2018-07-19T08:33:09.952Z,51.70
2018-07-19T08:35:44.816Z,52.30
2018-07-19T08:38:19.753Z,53.20
2018-07-19T08:40:54.692Z,51.80
2018-07-19T08:43:30.653Z,51.10
2018-07-19T08:46:05.517Z,51.50
2018-07-19T08:48:41.033Z,51.90
2018-07-19T08:51:15.835Z,51.60
2018-07-19T08:53:50.779Z,50.50
2018-07-19T08:56:25.623Z,52.30
2018-07-19T08:59:00.492Z,50.80
2018-07-19T09:01:36.317Z,51.00
2018-07-19T09:04:10.937Z,51.50
2018-07-19T09:09:21.804Z,50.20
2018-07-19T09:11:57.680Z,49.90
2018-07-19T09:14:32.103Z,51.70
2018-07-19T09:17:10.680Z,50.30
2018-07-19T09:19:45.336Z,50.10
2018-07-19T09:22:21.032Z,48.10
2018-07-19T09:24:55.539Z,49.20
2018-07-19T09:27:38.108Z,50.10
2018-07-19T09:32:54.411Z,49.20
2018-07-19T09:35:28.881Z,48.70
2018-07-19T09:38:08.868Z,49.50
2018-07-19T09:40:55.861Z,48.90
2018-07-19T09:43:30.645Z,48.80
2018-07-19T09:46:05.615Z,46.80
2018-07-19T09:48:41.388Z,50.50
2018-07-19T09:51:16.249Z,50.40
2018-07-19T09:53:51.268Z,50.50
2018-07-19T09:56:27.215Z,51.00
2018-07-19T09:59:03.049Z,48.30
2018-07-19T10:01:38.848Z,48.50
2018-07-19T10:04:14.013Z,49.00
2018-07-19T10:06:49.721Z,50.40
2018-07-19T10:09:24.857Z,48.80
2018-07-19T10:11:59.737Z,50.00
2018-07-19T10:14:34.524Z,50.10
2018-07-19T10:17:09.901Z,50.00
2018-07-19T10:19:45.501Z,50.90
2018-07-19T10:22:20.276Z,48.00
2018-07-19T10:24:54.992Z,48.70
2018-07-19T10:27:29.802Z,50.90
2018-07-19T10:32:39.067Z,49.00
2018-07-19T10:35:15.078Z,49.80
2018-07-19T10:37:49.839Z,48.90
2018-07-19T10:42:58.883Z,46.40
2018-07-19T10:45:33.731Z,47.10
2018-07-19T10:48:08.503Z,43.30
2018-07-19T10:50:43.233Z,43.90
2018-07-19T10:53:19.083Z,42.80
2018-07-19T10:55:53.927Z,41.50
2018-07-19T10:58:28.694Z,43.80
2018-07-19T11:01:04.577Z,45.90
2018-07-19T11:03:39.411Z,46.30
2018-07-19T11:06:14.107Z,46.20
2018-07-19T11:08:48.897Z,42.60
2018-07-19T11:11:23.645Z,40.30
2018-07-19T11:16:32.732Z,39.00
2018-07-19T11:19:07.598Z,38.20
2018-07-19T11:24:16.666Z,39.50
2018-07-19T11:26:51.412Z,40.40
2018-07-19T11:29:27.181Z,40.80
2018-07-19T11:32:01.864Z,41.80
2018-07-19T11:34:36.629Z,42.10
2018-07-19T11:37:11.329Z,40.10
2018-07-19T11:39:46.507Z,43.60
2018-07-19T11:42:21.317Z,46.30
2018-07-19T11:44:57.076Z,47.80
2018-07-19T11:47:32.799Z,48.20
2018-07-19T11:50:07.623Z,49.80
2018-07-19T11:52:42.364Z,50.10
2018-07-19T11:55:18.180Z,49.90
2018-07-19T11:57:53.068Z,51.50
2018-07-19T12:00:27.836Z,52.20
2018-07-19T12:05:37.035Z,53.40
2018-07-19T12:08:11.792Z,54.10
2018-07-19T12:13:21.841Z,53.60
2018-07-19T12:18:30.930Z,55.30
2018-07-19T12:21:05.628Z,53.80
2018-07-19T12:23:40.401Z,53.00
2018-07-19T12:26:15.113Z,52.80
2018-07-19T12:28:49.818Z,53.40
2018-07-19T12:31:25.600Z,54.80
2018-07-19T12:34:00.336Z,54.70
2018-07-19T12:36:35.141Z,53.90
2018-07-19T12:39:11.732Z,54.80
2018-07-19T12:41:46.438Z,54.30
2018-07-19T12:44:21.188Z,53.30
2018-07-19T12:46:55.903Z,54.40
2018-07-19T12:49:31.228Z,53.70
2018-07-19T12:52:05.979Z,53.50
2018-07-19T12:54:41.692Z,53.20
2018-07-19T12:57:16.432Z,54.00
2018-07-19T12:59:51.221Z,54.80
2018-07-19T13:02:25.945Z,52.70
2018-07-19T13:05:00.684Z,52.80
2018-07-19T13:07:35.425Z,52.90
2018-07-19T13:10:10.214Z,53.00
2018-07-19T13:12:45.196Z,53.10
2018-07-19T13:15:21.596Z,54.30
2018-07-19T13:17:57.335Z,54.70
2018-07-19T13:20:32.149Z,53.10
2018-07-19T13:23:07.933Z,53.60
2018-07-19T13:25:42.671Z,53.40
2018-07-19T13:28:17.415Z,53.30
2018-07-19T13:30:52.235Z,54.10
2018-07-19T13:33:28.036Z,54.10
2018-07-19T13:36:02.801Z,54.50
2018-07-19T13:38:37.533Z,54.60
2018-07-19T13:41:12.637Z,53.70
2018-07-19T13:43:47.373Z,54.20
2018-07-19T13:46:23.144Z,54.50
2018-07-19T13:48:57.862Z,54.50
2018-07-19T13:51:33.668Z,54.20
2018-07-19T13:54:12.466Z,54.70
2018-07-19T13:56:48.371Z,53.30
2018-07-19T13:59:23.148Z,53.10
2018-07-19T14:01:58.888Z,53.30
2018-07-19T14:04:34.712Z,53.00
2018-07-19T14:07:09.480Z,53.40
2018-07-19T14:09:44.252Z,53.60
2018-07-19T14:12:18.970Z,53.80
2018-07-19T14:14:53.773Z,53.90
2018-07-19T14:17:28.471Z,54.40
2018-07-19T14:22:38.485Z,53.90
2018-07-19T14:25:13.256Z,54.40
2018-07-19T14:30:22.274Z,55.00
2018-07-19T14:32:58.019Z,54.30
2018-07-19T14:35:32.788Z,55.20
2018-07-19T14:38:07.504Z,55.40
2018-07-19T14:43:17.489Z,53.80
2018-07-19T14:45:52.216Z,54.00
2018-07-19T14:48:26.919Z,54.30
2018-07-19T14:51:01.693Z,54.50
2018-07-19T14:53:36.414Z,53.90
2018-07-19T14:56:11.297Z,54.40
2018-07-19T14:58:46.058Z,54.70
2018-07-19T15:01:21.470Z,55.20
2018-07-19T15:03:56.244Z,53.60
2018-07-19T15:06:31.040Z,54.60
2018-07-19T15:09:09.753Z,55.00
2018-07-19T15:14:18.724Z,54.80
2018-07-19T15:16:53.519Z,54.50
2018-07-19T15:22:02.479Z,55.10
2018-07-19T15:24:37.174Z,55.40
2018-07-19T15:29:47.308Z,54.90
2018-07-19T15:32:22.025Z,55.70
2018-07-19T15:34:56.707Z,55.50
2018-07-19T15:37:31.439Z,55.80
2018-07-19T15:40:06.952Z,55.10
2018-07-19T15:42:42.704Z,54.70
2018-07-19T15:45:17.424Z,54.50
2018-07-19T15:47:52.153Z,54.60
2018-07-19T15:50:26.864Z,53.80
2018-07-19T15:53:01.585Z,54.00
2018-07-19T15:55:36.385Z,54.00
2018-07-19T16:00:45.542Z,54.10
2018-07-19T16:03:21.280Z,54.00
2018-07-19T16:05:56.028Z,53.90
2018-07-19T16:08:30.715Z,53.90
2018-07-19T16:11:05.479Z,53.20
2018-07-19T16:13:40.199Z,52.90
2018-07-19T16:16:16.006Z,53.30
2018-07-19T16:18:50.709Z,53.40
2018-07-19T16:21:25.594Z,52.90
2018-07-19T16:24:00.343Z,51.80
2018-07-19T16:26:35.110Z,52.50
2018-07-19T16:34:18.296Z,53.00
2018-07-19T16:36:53.109Z,51.40
2018-07-19T16:39:27.845Z,52.50
2018-07-19T16:42:02.585Z,51.70
2018-07-19T16:44:37.288Z,51.80
2018-07-19T16:47:13.077Z,52.70
2018-07-19T16:49:47.810Z,52.90
2018-07-19T16:52:22.596Z,52.80
2018-07-19T16:54:57.295Z,52.20
2018-07-19T17:00:06.789Z,52.50
2018-07-19T17:02:41.538Z,52.60
2018-07-19T17:05:16.302Z,51.70
2018-07-19T17:07:52.161Z,52.10
2018-07-19T17:10:26.897Z,53.20
2018-07-19T17:13:01.667Z,52.60
2018-07-19T17:15:36.395Z,53.20
2018-07-19T17:18:12.213Z,53.00
2018-07-19T17:20:47.248Z,52.90
2018-07-19T17:23:21.994Z,52.80
2018-07-19T17:25:56.728Z,52.90
2018-07-19T17:28:31.554Z,54.10
2018-07-19T17:31:06.372Z,54.50
2018-07-19T17:33:41.143Z,54.80
2018-07-19T17:36:15.950Z,54.30
2018-07-19T17:38:50.732Z,55.00
2018-07-19T17:41:26.512Z,54.70
2018-07-19T17:44:01.265Z,54.70
2018-07-19T17:46:35.997Z,55.00
2018-07-19T17:49:10.772Z,55.10
2018-07-19T17:51:45.512Z,55.20
2018-07-19T17:54:20.274Z,55.90
2018-07-19T17:56:54.970Z,56.10
2018-07-19T17:59:29.702Z,55.70
2018-07-19T18:02:04.846Z,56.40
2018-07-19T18:04:39.582Z,57.20
2018-07-19T18:07:15.360Z,57.10
2018-07-19T18:09:51.123Z,56.80
2018-07-19T18:12:25.912Z,57.40
2018-07-19T18:15:00.632Z,58.00
2018-07-19T18:17:35.418Z,58.30
2018-07-19T18:20:11.656Z,59.20
2018-07-19T18:22:46.419Z,59.30
2018-07-19T18:25:21.164Z,60.20
2018-07-19T18:27:56.976Z,59.60
2018-07-19T18:30:31.656Z,60.50
2018-07-19T18:33:07.464Z,60.90
2018-07-19T18:35:42.140Z,61.40
2018-07-19T18:38:16.890Z,61.60
2018-07-19T18:40:51.668Z,61.50
2018-07-19T18:43:27.655Z,62.20
2018-07-19T18:46:02.398Z,62.90
2018-07-19T18:48:37.119Z,63.20
2018-07-19T18:51:11.880Z,63.70
2018-07-19T18:53:46.627Z,64.30
2018-07-19T18:56:21.448Z,64.80
2018-07-19T18:58:56.164Z,65.20
2018-07-19T19:01:30.912Z,65.30
2018-07-19T19:04:05.674Z,65.90
2018-07-19T19:06:40.537Z,66.40
2018-07-19T19:09:15.243Z,66.50
2018-07-19T19:11:50.009Z,67.00
2018-07-19T19:14:24.740Z,67.40
2018-07-19T19:16:59.515Z,68.50
2018-07-19T19:19:35.295Z,69.40
2018-07-19T19:22:10.001Z,70.50
2018-07-19T19:24:44.906Z,71.40
2018-07-19T19:27:19.614Z,72.40
2018-07-19T19:29:54.358Z,74.50
2018-07-19T19:35:03.528Z,80.10
2018-07-19T19:37:38.289Z,82.90
2018-07-19T19:40:13.000Z,87.20
2018-07-19T19:42:47.752Z,90.90
2018-07-19T19:45:23.499Z,92.30
2018-07-19T19:47:58.227Z,93.90
2018-07-19T19:50:32.948Z,95.50
2018-07-19T19:53:07.833Z,96.80
2018-07-19T19:55:42.767Z,98.30
2018-07-19T19:58:17.521Z,99.30
2018-07-19T20:00:52.252Z,99.90
2018-07-19T20:03:28.026Z,99.90
2018-07-19T20:06:02.740Z,99.90
2018-07-19T20:08:37.488Z,99.90
2018-07-19T20:11:12.214Z,99.90
2018-07-19T20:13:46.949Z,99.90
2018-07-19T20:16:21.736Z,99.90
2018-07-19T20:18:56.463Z,99.90
2018-07-19T20:21:31.340Z,99.90
2018-07-19T20:26:40.289Z,99.90
2018-07-19T20:29:15.085Z,99.90
2018-07-19T20:31:49.820Z,99.90
2018-07-19T20:34:24.595Z,99.90
2018-07-19T20:36:59.309Z,99.90
2018-07-19T20:39:35.099Z,99.90
2018-07-19T20:42:09.854Z,99.90
2018-07-19T20:44:45.635Z,99.90
2018-07-19T20:47:20.365Z,99.90
2018-07-19T20:49:55.088Z,99.90
2018-07-19T20:52:30.806Z,99.90
2018-07-19T20:55:05.616Z,99.90
2018-07-19T20:57:40.332Z,99.90
2018-07-19T21:00:15.164Z,99.90
2018-07-19T21:02:49.878Z,99.90
2018-07-19T21:05:24.602Z,99.90
2018-07-19T21:08:00.333Z,99.90
2018-07-19T21:10:36.107Z,99.90
2018-07-19T21:13:10.893Z,99.90
2018-07-19T21:15:45.914Z,99.90
2018-07-19T21:18:20.884Z,99.90
2018-07-19T21:20:56.619Z,99.90
2018-07-19T21:23:31.381Z,99.90
2018-07-19T21:26:07.172Z,99.90
2018-07-19T21:28:41.860Z,99.90
2018-07-19T21:31:16.594Z,99.90
2018-07-19T21:33:51.305Z,99.90
2018-07-19T21:36:26.054Z,99.90
2018-07-19T21:39:00.757Z,99.90
2018-07-19T21:41:35.513Z,99.90
2018-07-19T21:44:10.151Z,99.90
2018-07-19T21:49:19.176Z,99.90
2018-07-19T21:51:54.413Z,99.90
2018-07-19T21:57:04.479Z,99.90
2018-07-19T21:59:39.212Z,99.90
2018-07-19T22:04:48.557Z,99.90
2018-07-19T22:07:23.266Z,99.90
2018-07-19T22:09:59.012Z,99.90
2018-07-19T22:12:33.738Z,99.90
2018-07-19T22:15:10.471Z,99.90
2018-07-19T22:17:45.195Z,99.90
2018-07-19T22:20:19.916Z,99.90
2018-07-19T22:22:54.631Z,99.90
2018-07-19T22:25:30.427Z,99.90
2018-07-19T22:28:06.170Z,99.90
2018-07-19T22:30:40.900Z,99.90
2018-07-19T22:33:15.649Z,99.90
2018-07-19T22:35:50.412Z,99.90
2018-07-19T22:38:26.145Z,99.90
2018-07-19T22:41:00.928Z,99.90
2018-07-19T22:43:35.627Z,99.90
2018-07-19T22:46:10.407Z,99.90
2018-07-19T22:48:45.099Z,99.90
2018-07-19T22:51:20.325Z,99.90
2018-07-19T22:53:55.055Z,99.90
2018-07-19T22:56:29.804Z,99.90
2018-07-19T22:59:04.488Z,99.90
2018-07-19T23:01:39.572Z,99.90
2018-07-19T23:04:14.308Z,99.90
2018-07-19T23:06:49.034Z,99.90
2018-07-19T23:09:23.727Z,99.90
2018-07-19T23:11:59.583Z,99.90
2018-07-19T23:14:34.323Z,99.90
2018-07-19T23:17:09.093Z,99.90
2018-07-19T23:19:43.260Z,99.90
2018-07-19T23:22:18.032Z,99.90
2018-07-19T23:24:52.840Z,99.90
2018-07-19T23:27:28.657Z,99.90
2018-07-19T23:30:03.896Z,99.90
2018-07-19T23:32:38.652Z,99.90
2018-07-19T23:35:12.864Z,99.90
2018-07-19T23:46:55.277Z,99.90
2018-07-19T23:49:30.052Z,99.90
2018-07-19T23:52:04.932Z,99.90
2018-07-19T23:54:39.728Z,99.90
2018-07-19T23:57:14.531Z,99.90
2018-07-19T23:59:50.338Z,99.90
